createdAt,value
2023-01-22T00:02:21.411Z,-2.24
2023-01-22T00:13:28.257Z,-2.23
2023-01-22T00:17:02.204Z,-2.26
2023-01-22T00:20:41.767Z,-2.30
2023-01-22T00:24:14.219Z,-2.26
2023-01-22T00:27:46.276Z,-2.24
2023-01-22T00:31:19.300Z,-2.23
2023-01-22T00:34:52.191Z,-2.25
2023-01-22T00:38:27.538Z,-2.25
2023-01-22T00:42:02.230Z,-2.28
2023-01-22T00:45:37.359Z,-2.26
2023-01-22T00:49:18.266Z,-2.22
2023-01-22T00:52:56.280Z,-2.30
2023-01-22T00:56:33.365Z,-2.32
2023-01-22T01:00:10.211Z,-2.34
2023-01-22T01:03:49.230Z,-2.28
2023-01-22T01:07:36.328Z,-2.23
2023-01-22T01:11:11.117Z,-2.19
2023-01-22T01:14:56.215Z,-2.19
2023-01-22T01:18:37.364Z,-2.19
2023-01-22T01:22:12.603Z,-2.16
2023-01-22T01:29:36.228Z,-2.12
2023-01-22T01:33:08.217Z,-2.12
2023-01-22T01:36:48.715Z,-2.15
2023-01-22T01:40:06.386Z,-2.17
2023-01-22T01:43:53.268Z,-2.16
2023-01-22T01:47:32.334Z,-2.16
2023-01-22T01:51:32.252Z,-2.14
2023-01-22T01:55:21.307Z,-2.12
2023-01-22T01:58:58.278Z,-2.14
2023-01-22T02:06:31.911Z,-2.08
2023-01-22T02:10:08.264Z,-2.02
2023-01-22T02:13:44.302Z,-1.97
2023-01-22T02:20:54.304Z,-1.91
2023-01-22T02:24:35.308Z,-1.90
2023-01-22T02:28:29.321Z,-1.94
2023-01-22T02:32:01.288Z,-1.94
2023-01-22T02:35:43.319Z,-1.93
2023-01-22T02:39:22.708Z,-1.88
2023-01-22T02:42:55.350Z,-1.86
2023-01-22T02:46:38.443Z,-1.85
2023-01-22T02:57:02.269Z,-1.76
2023-01-22T03:00:34.461Z,-1.75
2023-01-22T03:04:07.330Z,-1.74
2023-01-22T03:07:45.388Z,-1.69
2023-01-22T03:11:18.344Z,-1.62
2023-01-22T03:14:55.157Z,-1.57
2023-01-22T03:18:32.389Z,-1.55
2023-01-22T03:22:09.466Z,-1.56
2023-01-22T03:25:39.421Z,-1.58
2023-01-22T03:29:11.372Z,-1.56
2023-01-22T03:32:51.493Z,-1.54
2023-01-22T03:36:33.415Z,-1.53
2023-01-22T03:40:32.328Z,-1.48
2023-01-22T03:44:06.442Z,-1.46
2023-01-22T03:47:47.465Z,-1.42
2023-01-22T03:51:20.413Z,-1.40
2023-01-22T03:54:55.364Z,-1.41
2023-01-22T03:58:33.381Z,-1.39
2023-01-22T04:02:11.451Z,-1.37
2023-01-22T04:06:06.308Z,-1.37
2023-01-22T04:09:49.376Z,-1.36
2023-01-22T04:13:49.781Z,-1.35
2023-01-22T04:17:26.808Z,-1.33
2023-01-22T04:21:19.546Z,-1.31
2023-01-22T04:25:08.433Z,-1.30
2023-01-22T04:28:55.429Z,-1.29
2023-01-22T04:32:51.472Z,-1.28
2023-01-22T04:36:45.410Z,-1.25
2023-01-22T04:40:27.458Z,-1.23
2023-01-22T04:51:56.423Z,-1.28
2023-01-22T04:59:52.489Z,-1.29
2023-01-22T05:03:32.483Z,-1.30
2023-01-22T05:07:07.458Z,-1.31
2023-01-22T05:10:47.480Z,-1.31
2023-01-22T05:14:35.608Z,-1.31
2023-01-22T05:18:14.533Z,-1.35
2023-01-22T05:26:04.515Z,-1.39
2023-01-22T05:30:19.665Z,-1.41
2023-01-22T05:41:37.452Z,-1.46
2023-01-22T05:45:15.511Z,-1.46
2023-01-22T05:48:56.478Z,-1.48
2023-01-22T05:56:15.266Z,-1.48
2023-01-22T06:03:56.548Z,-1.44
2023-01-22T06:07:58.520Z,-1.44
2023-01-22T06:11:41.125Z,-1.43
2023-01-22T06:15:21.515Z,-1.45
2023-01-22T06:18:57.484Z,-1.44
2023-01-22T06:23:03.762Z,-1.43
2023-01-22T06:27:11.088Z,-1.41
2023-01-22T06:34:55.919Z,-1.41
2023-01-22T06:38:41.469Z,-1.37
2023-01-22T06:42:37.898Z,-1.34
2023-01-22T06:46:35.587Z,-1.35
2023-01-22T06:50:54.105Z,-1.34
2023-01-22T15:41:03.598Z,-2.19
2023-01-22T16:19:10.902Z,-2.20
2023-01-22T16:38:15.934Z,-2.17
2023-01-22T16:42:22.452Z,-2.19
2023-01-22T16:50:04.894Z,-2.21
2023-01-22T16:53:50.013Z,-2.23
2023-01-22T16:58:10.828Z,-2.24
2023-01-22T17:02:09.646Z,-2.23
2023-01-22T17:06:06.886Z,-2.20
2023-01-22T17:09:54.912Z,-2.22
2023-01-22T17:21:01.587Z,-2.23
2023-01-22T17:24:29.246Z,-2.22
2023-01-22T17:28:12.895Z,-2.23
2023-01-22T17:31:53.022Z,-2.25
2023-01-22T17:39:53.907Z,-2.23
2023-01-22T17:43:46.160Z,-2.24
2023-01-22T17:47:22.998Z,-2.23
2023-01-22T17:54:48.952Z,-2.28
2023-01-22T17:58:38.022Z,-2.29
2023-01-22T18:02:12.502Z,-2.26
2023-01-22T18:05:57.175Z,-2.29
2023-01-22T18:09:58.023Z,-2.29
2023-01-22T18:13:38.021Z,-2.26
2023-01-22T18:17:32.969Z,-2.27
2023-01-22T18:21:16.000Z,-2.26
2023-01-22T18:24:53.024Z,-2.29
2023-01-22T18:32:18.655Z,-2.28
2023-01-22T18:36:25.829Z,-2.30
2023-01-22T18:40:07.492Z,-2.31
2023-01-22T18:43:44.928Z,-2.28
2023-01-22T18:47:34.801Z,-2.30
2023-01-22T18:51:15.644Z,-2.29
2023-01-22T18:54:57.813Z,-2.30
2023-01-22T18:58:46.081Z,-2.27
2023-01-22T19:02:43.065Z,-2.27
2023-01-22T19:06:17.789Z,-2.26
2023-01-22T19:17:35.356Z,-2.21
2023-01-22T19:21:18.785Z,-2.21
2023-01-22T19:24:57.974Z,-2.21
2023-01-22T19:28:53.999Z,-2.21
2023-01-22T19:32:29.027Z,-2.20
2023-01-22T19:39:37.481Z,-2.19
2023-01-22T19:43:15.204Z,-2.16
2023-01-22T22:59:23.645Z,-2.52
2023-01-22T23:03:45.705Z,-2.54
2023-01-22T23:14:35.766Z,-2.53
2023-01-22T23:18:10.758Z,-2.50
2023-01-22T23:22:15.549Z,-2.48
2023-01-22T23:25:55.751Z,-2.48
2023-01-22T23:33:52.288Z,-2.48
2023-01-22T23:37:47.530Z,-2.48
2023-01-22T23:41:40.566Z,-2.48
2023-01-22T23:55:37.619Z,-2.48
